Terminal Aerodrome Forecast
Issued by NWS Albany, NY

Home | Current Version | Previous Version | Text Only | Print | Product List | Glossary On
Versions: 1 2 3 4 5 6 7 8 9 10 11 12 13 14 15 16 17
121
FTUS41 KALY 281720
TAFGFL
TAF
KGFL 281720Z 2818/2918 17006KT P6SM VCSH SCT100 BKN200
      TEMPO 2818/2822 4SM -TSRA BR BKN050CB OVC100
     FM290500 00000KT P6SM VCSH BKN050 BKN150
     FM290900 03003KT 5SM -RA BR OVC050
     FM291500 03005KT P6SM VCSH BKN050 OVC150=

USA.gov is the U.S. government's official web portal to all federal, state and local government web resources and services.